Time;durP1;ratioP1;P1;durP2;ratioP2;P2;SDS_P1;SDS_P2;PMS_P1;PMS_P2;Temp;Humidity;BMP_temperature;BMP_pressure;BME280_temperature;BME280_humidity;BME280_pressure;Samples;Min_cycle;Max_cycle;Signal;HPM_P1;HPM_P2
2023/08/27 00:00:13;;;;;;;2.60;1.73;;;18.40;99.90;;;;;;5115271;28;20417;-55
2023/08/27 00:02:40;;;;;;;2.30;1.50;;;18.30;99.90;;;;;;5115941;28;20719;-53
2023/08/27 00:05:09;;;;;;;2.55;1.42;;;18.30;99.90;;;;;;5115401;28;20425;-54
2023/08/27 00:07:37;;;;;;;2.70;1.52;;;18.30;99.90;;;;;;5114917;28;20510;-56
2023/08/27 00:10:05;;;;;;;2.90;2.30;;;18.30;99.90;;;;;;5115639;28;20420;-52
2023/08/27 00:12:32;;;;;;;3.20;1.60;;;18.40;99.90;;;;;;5115090;28;20832;-54
2023/08/27 00:14:59;;;;;;;3.15;1.67;;;18.40;99.90;;;;;;5114935;28;20732;-54
2023/08/27 00:17:27;;;;;;;3.15;1.60;;;18.50;99.90;;;;;;5115332;28;20862;-54
2023/08/27 00:19:54;;;;;;;3.42;2.15;;;18.50;99.90;;;;;;5115389;28;20731;-52
2023/08/27 00:22:21;;;;;;;2.73;2.13;;;18.50;99.90;;;;;;5115392;28;20437;-53
2023/08/27 00:24:50;;;;;;;2.80;2.17;;;18.50;99.90;;;;;;5114933;28;20724;-49
2023/08/27 00:27:17;;;;;;;3.10;2.15;;;18.50;99.90;;;;;;5114141;28;20419;-49
2023/08/27 00:29:44;;;;;;;5.77;3.60;;;18.50;99.90;;;;;;5119306;28;20434;-55
2023/08/27 00:32:11;;;;;;;4.57;3.03;;;18.50;99.90;;;;;;5117762;28;20427;-52
2023/08/27 00:34:38;;;;;;;4.97;3.55;;;18.50;99.90;;;;;;5117737;28;20732;-53
2023/08/27 00:37:05;;;;;;;5.97;3.08;;;18.50;99.90;;;;;;5117454;28;20447;-55
2023/08/27 00:39:33;;;;;;;6.97;3.70;;;18.50;99.90;;;;;;5118297;28;20408;-50
2023/08/27 00:42:01;;;;;;;3.20;2.20;;;18.50;99.90;;;;;;5118716;28;20792;-55
2023/08/27 00:44:28;;;;;;;3.85;1.80;;;18.60;99.90;;;;;;5118908;28;20415;-53
2023/08/27 00:46:56;;;;;;;2.92;1.60;;;18.50;99.90;;;;;;5119319;28;20423;-54
2023/08/27 00:49:23;;;;;;;4.22;2.10;;;18.60;99.90;;;;;;5118202;28;20431;-56
2023/08/27 00:51:51;;;;;;;2.60;1.90;;;18.70;99.90;;;;;;5117996;28;20412;-54
2023/08/27 00:54:18;;;;;;;3.40;2.73;;;18.60;99.90;;;;;;5119390;28;20436;-54
2023/08/27 00:56:47;;;;;;;3.13;2.83;;;18.50;99.90;;;;;;5119850;28;20419;-55
2023/08/27 00:59:16;;;;;;;3.87;2.70;;;18.40;99.90;;;;;;5118690;28;20432;-55
2023/08/27 01:01:44;;;;;;;4.93;3.63;;;18.40;99.90;;;;;;5119204;28;20843;-50
2023/08/27 01:04:11;;;;;;;5.23;3.47;;;18.40;99.90;;;;;;5118510;28;20416;-50
2023/08/27 01:06:38;;;;;;;3.20;2.90;;;18.30;99.90;;;;;;5117444;28;20431;-51
2023/08/27 01:09:16;;;;;;;4.35;3.20;;;18.20;99.90;;;;;;5117794;28;20840;-52
2023/08/27 01:11:55;;;;;;;2.42;1.60;;;18.10;99.90;;;;;;5116811;28;20412;-54
2023/08/27 01:14:24;;;;;;;2.20;1.70;;;18.30;99.90;;;;;;5117394;28;20436;-49
2023/08/27 01:16:52;;;;;;;3.50;1.67;;;18.40;99.90;;;;;;5116425;28;20698;-52
2023/08/27 01:19:21;;;;;;;3.10;1.30;;;18.50;99.90;;;;;;5117240;28;20586;-52
2023/08/27 01:21:50;;;;;;;2.40;1.53;;;18.60;99.90;;;;;;5118437;28;20420;-54
2023/08/27 01:24:17;;;;;;;2.33;1.92;;;18.60;99.90;;;;;;5117692;28;20408;-53
2023/08/27 01:26:47;;;;;;;3.17;2.42;;;18.60;99.90;;;;;;5118877;28;20741;-51
2023/08/27 01:29:23;;;;;;;2.70;1.85;;;18.50;99.90;;;;;;5118881;28;20849;-50
2023/08/27 01:31:56;;;;;;;3.43;1.70;;;18.40;99.90;;;;;;5118585;28;20455;-50
2023/08/27 01:34:25;;;;;;;4.90;1.70;;;18.30;99.90;;;;;;5117097;28;20435;-52
2023/08/27 01:36:55;;;;;;;2.30;1.90;;;18.10;99.90;;;;;;5118563;28;20427;-50
2023/08/27 01:39:22;;;;;;;2.40;1.30;;;18.00;99.90;;;;;;5118272;28;20419;-52
2023/08/27 01:41:49;;;;;;;2.20;1.40;;;17.90;99.90;;;;;;5118701;28;20519;-51
2023/08/27 01:44:16;;;;;;;2.50;1.30;;;17.90;99.90;;;;;;5118856;28;20723;-53
2023/08/27 01:46:43;;;;;;;1.77;1.40;;;17.90;99.90;;;;;;5118391;28;20416;-52
2023/08/27 01:49:10;;;;;;;1.50;1.20;;;18.00;99.90;;;;;;5118041;28;20477;-51
2023/08/27 01:51:37;;;;;;;1.73;1.30;;;18.10;99.90;;;;;;5118277;28;20859;-49
2023/08/27 01:54:06;;;;;;;1.50;1.10;;;18.20;99.90;;;;;;5118152;28;20420;-47
2023/08/27 01:56:33;;;;;;;1.75;1.10;;;18.30;99.90;;;;;;5117988;28;20447;-53
2023/08/27 01:59:00;;;;;;;1.60;1.20;;;18.30;99.90;;;;;;5115291;28;20424;-52
2023/08/27 02:01:27;;;;;;;2.30;1.10;;;18.30;99.90;;;;;;5116066;28;20424;-51
2023/08/27 02:03:54;;;;;;;2.90;1.10;;;18.30;99.90;;;;;;5116606;28;20724;-50
2023/08/27 02:06:21;;;;;;;2.85;1.25;;;18.20;99.90;;;;;;5117423;28;20451;-53
2023/08/27 02:08:48;;;;;;;1.90;1.30;;;18.30;99.90;;;;;;5116250;28;20427;-51
2023/08/27 02:11:17;;;;;;;1.90;1.40;;;18.30;99.90;;;;;;5115966;28;20416;-53
2023/08/27 02:13:44;;;;;;;2.20;1.10;;;18.30;99.90;;;;;;5116899;28;20858;-50
2023/08/27 02:16:11;;;;;;;2.92;1.30;;;18.30;99.90;;;;;;5116986;28;20442;-48
2023/08/27 02:18:38;;;;;;;2.15;1.25;;;18.30;99.90;;;;;;5116560;28;20424;-51
2023/08/27 02:21:05;;;;;;;2.00;1.27;;;18.40;99.90;;;;;;5116577;28;20408;-51
2023/08/27 02:23:32;;;;;;;3.40;1.40;;;18.40;99.90;;;;;;5115844;28;20431;-53
2023/08/27 02:25:59;;;;;;;2.10;1.60;;;18.40;99.90;;;;;;5117087;28;20433;-55
2023/08/27 02:28:27;;;;;;;2.90;1.40;;;18.40;99.90;;;;;;5116853;28;20843;-54
2023/08/27 02:30:56;;;;;;;2.53;1.80;;;18.50;99.90;;;;;;5115327;28;20517;-54
2023/08/27 02:33:23;;;;;;;4.68;2.00;;;18.50;99.90;;;;;;5116388;28;20436;-55
2023/08/27 02:35:50;;;;;;;2.15;1.77;;;18.50;99.90;;;;;;5115612;28;20439;-52
2023/08/27 02:38:18;;;;;;;4.50;1.60;;;18.40;99.90;;;;;;5116923;28;20424;-54
2023/08/27 02:40:45;;;;;;;2.45;1.50;;;18.30;99.90;;;;;;5116395;28;20416;-52
2023/08/27 02:43:12;;;;;;;2.00;1.80;;;18.20;99.90;;;;;;5115861;28;20830;-54
2023/08/27 02:45:41;;;;;;;2.53;1.20;;;18.30;99.90;;;;;;5116858;28;20411;-54
2023/08/27 02:48:08;;;;;;;1.50;1.10;;;18.30;99.90;;;;;;5116486;28;20490;-49
2023/08/27 02:50:35;;;;;;;1.88;1.10;;;18.20;99.90;;;;;;5114760;28;20464;-48
2023/08/27 02:53:02;;;;;;;2.80;1.00;;;18.20;99.90;;;;;;5115450;28;20873;-49
2023/08/27 02:55:31;;;;;;;2.38;1.00;;;18.10;99.90;;;;;;5115162;28;20432;-54
2023/08/27 02:57:58;;;;;;;1.50;1.00;;;18.10;99.90;;;;;;5115693;28;20463;-54
2023/08/27 03:00:25;;;;;;;2.10;1.00;;;18.00;99.90;;;;;;5116132;28;20720;-54
2023/08/27 03:02:54;;;;;;;2.35;1.30;;;17.80;99.90;;;;;;5115532;28;20842;-49
2023/08/27 03:05:21;;;;;;;2.17;1.05;;;17.80;99.90;;;;;;5117316;28;20719;-52
2023/08/27 03:07:48;;;;;;;2.40;1.10;;;17.90;99.90;;;;;;5116312;28;20427;-53
2023/08/27 03:10:16;;;;;;;2.60;1.20;;;18.00;99.90;;;;;;5116701;28;20420;-52
2023/08/27 03:12:43;;;;;;;2.30;1.20;;;18.00;99.90;;;;;;5116657;28;20412;-50
2023/08/27 03:15:10;;;;;;;2.10;1.40;;;17.90;99.90;;;;;;5116629;28;20424;-49
2023/08/27 03:17:37;;;;;;;2.33;1.60;;;17.80;99.90;;;;;;5116241;28;20774;-51
2023/08/27 03:20:07;;;;;;;2.75;1.67;;;17.70;99.90;;;;;;5116105;28;20427;-50
2023/08/27 03:22:34;;;;;;;3.80;1.60;;;17.60;99.90;;;;;;5116061;28;20421;-48
2023/08/27 03:25:01;;;;;;;2.42;1.92;;;17.60;99.90;;;;;;5115907;28;20416;-50
2023/08/27 03:27:28;;;;;;;2.47;1.93;;;17.60;99.90;;;;;;5115103;28;20416;-52
2023/08/27 03:29:55;;;;;;;4.63;2.10;;;17.60;99.90;;;;;;5114976;28;20447;-49
2023/08/27 03:32:22;;;;;;;2.60;2.00;;;17.50;99.90;;;;;;5113784;28;20420;-48
2023/08/27 03:34:49;;;;;;;3.33;2.00;;;17.50;99.90;;;;;;5113923;28;20734;-53
2023/08/27 03:37:18;;;;;;;3.30;2.00;;;17.50;99.90;;;;;;5113953;28;20731;-50
2023/08/27 03:39:45;;;;;;;3.10;1.90;;;17.50;99.90;;;;;;5114495;28;20416;-54
2023/08/27 03:42:12;;;;;;;3.28;2.20;;;17.40;99.90;;;;;;5115092;28;20419;-55
2023/08/27 03:44:39;;;;;;;4.07;2.67;;;17.50;99.90;;;;;;5116225;28;20442;-49
2023/08/27 03:47:06;;;;;;;3.53;1.70;;;17.50;99.90;;;;;;5115994;28;20824;-54
2023/08/27 03:49:33;;;;;;;3.25;1.70;;;17.60;99.90;;;;;;5115587;28;20423;-55
2023/08/27 03:52:00;;;;;;;2.20;1.60;;;17.70;99.90;;;;;;5116087;28;20838;-55
2023/08/27 03:54:30;;;;;;;3.80;2.05;;;17.80;99.90;;;;;;5116183;28;20713;-52
2023/08/27 03:56:57;;;;;;;4.03;1.70;;;17.70;99.90;;;;;;5116187;28;20719;-52
2023/08/27 03:59:24;;;;;;;2.00;1.40;;;17.60;99.90;;;;;;5114493;28;20427;-55
2023/08/27 04:01:52;;;;;;;2.47;1.40;;;17.50;99.90;;;;;;5114976;28;20447;-51
2023/08/27 04:04:19;;;;;;;1.70;1.10;;;17.60;99.90;;;;;;5112511;28;20424;-50
2023/08/27 04:06:46;;;;;;;1.80;1.13;;;17.50;99.90;;;;;;5115287;28;20431;-49
2023/08/27 04:09:13;;;;;;;1.60;1.20;;;17.60;99.90;;;;;;5115035;28;20415;-50
2023/08/27 04:11:42;;;;;;;1.60;1.20;;;17.50;99.90;;;;;;5115586;28;20766;-53
2023/08/27 04:14:09;;;;;;;1.70;1.20;;;17.60;99.90;;;;;;5115651;28;20427;-53
2023/08/27 04:16:36;;;;;;;2.25;1.20;;;17.60;99.90;;;;;;5115821;28;20420;-49
2023/08/27 04:19:03;;;;;;;2.50;1.10;;;17.50;99.90;;;;;;5115387;28;20697;-47
2023/08/27 04:21:30;;;;;;;1.70;1.20;;;17.40;99.90;;;;;;5115128;28;20473;-54
2023/08/27 04:23:57;;;;;;;1.50;1.10;;;17.40;99.90;;;;;;5106921;28;20411;-49
2023/08/27 04:26:25;;;;;;;1.60;1.02;;;17.40;99.90;;;;;;5115874;28;20893;-55
2023/08/27 04:28:54;;;;;;;1.80;1.10;;;17.40;99.90;;;;;;5114490;28;20427;-53
2023/08/27 04:31:22;;;;;;;1.40;1.10;;;17.40;99.90;;;;;;5113329;28;20470;-55
2023/08/27 04:33:49;;;;;;;1.70;1.00;;;17.20;99.90;;;;;;5113444;28;20411;-53
2023/08/27 04:36:16;;;;;;;2.60;1.03;;;17.30;99.90;;;;;;5112680;28;20424;-53
2023/08/27 04:38:43;;;;;;;2.30;0.90;;;17.40;99.90;;;;;;5112531;28;20564;-49
2023/08/27 04:41:10;;;;;;;1.30;0.97;;;17.40;99.90;;;;;;5112304;28;20447;-53
2023/08/27 04:43:37;;;;;;;1.50;0.90;;;17.50;99.90;;;;;;5112308;28;20428;-51
2023/08/27 04:46:06;;;;;;;1.20;1.00;;;17.50;99.90;;;;;;5113257;28;20419;-50
2023/08/27 04:48:33;;;;;;;1.88;0.90;;;17.50;99.90;;;;;;5113522;28;20864;-53
2023/08/27 04:51:00;;;;;;;1.60;0.90;;;17.40;99.90;;;;;;5114284;28;20412;-51
2023/08/27 04:53:27;;;;;;;1.30;0.90;;;17.40;99.90;;;;;;5115368;28;20427;-55
2023/08/27 04:55:54;;;;;;;1.10;0.80;;;17.40;99.90;;;;;;5115310;28;20508;-52
2023/08/27 04:58:21;;;;;;;1.17;0.90;;;17.40;99.90;;;;;;5113804;28;20420;-54
2023/08/27 05:00:49;;;;;;;1.50;0.80;;;17.40;99.90;;;;;;5113779;28;20702;-52
2023/08/27 05:03:18;;;;;;;1.40;0.70;;;17.50;99.90;;;;;;5114473;28;20835;-51
2023/08/27 05:05:45;;;;;;;1.30;0.90;;;17.60;99.90;;;;;;5115549;28;20420;-53
2023/08/27 05:08:12;;;;;;;1.30;0.75;;;17.60;99.90;;;;;;5115598;28;20420;-52
2023/08/27 05:10:39;;;;;;;1.73;0.70;;;17.60;99.90;;;;;;5113556;28;20427;-54
2023/08/27 05:13:06;;;;;;;1.52;0.80;;;17.60;99.90;;;;;;5113660;28;20827;-53
2023/08/27 05:15:33;;;;;;;1.58;0.60;;;17.60;99.90;;;;;;5118243;28;20451;-54
2023/08/27 05:18:00;;;;;;;1.30;0.80;;;17.60;99.90;;;;;;5118731;28;20412;-55
2023/08/27 05:20:29;;;;;;;1.33;0.90;;;17.60;99.90;;;;;;5118819;28;20730;-53
2023/08/27 05:22:56;;;;;;;1.00;0.80;;;17.60;99.90;;;;;;5118229;28;20424;-55
2023/08/27 05:25:23;;;;;;;1.30;0.88;;;17.60;99.90;;;;;;5118799;28;20412;-51
2023/08/27 05:27:50;;;;;;;1.10;0.80;;;17.60;99.90;;;;;;5118559;28;20705;-52
2023/08/27 05:30:17;;;;;;;2.00;0.70;;;17.70;99.90;;;;;;5118554;28;20420;-54
2023/08/27 05:32:44;;;;;;;1.60;0.70;;;17.80;99.90;;;;;;5118308;28;20424;-53
2023/08/27 05:35:11;;;;;;;2.72;0.80;;;17.80;99.90;;;;;;5117463;28;20440;-51
2023/08/27 05:37:40;;;;;;;1.67;0.80;;;17.70;99.90;;;;;;5117757;28;20420;-55
2023/08/27 05:40:09;;;;;;;1.10;0.70;;;17.60;99.90;;;;;;5116862;28;20904;-55
2023/08/27 05:42:36;;;;;;;1.40;0.70;;;17.60;99.90;;;;;;5116498;28;20416;-54
2023/08/27 05:45:04;;;;;;;1.40;0.60;;;17.70;99.90;;;;;;5115864;28;20715;-54
2023/08/27 05:47:31;;;;;;;1.70;0.70;;;17.80;99.90;;;;;;5115702;28;20420;-55
2023/08/27 05:49:58;;;;;;;1.90;0.60;;;17.70;99.90;;;;;;5116409;28;20423;-53
2023/08/27 05:52:26;;;;;;;1.10;0.60;;;17.70;99.90;;;;;;5116559;28;20478;-55
2023/08/27 05:54:54;;;;;;;0.75;0.60;;;17.80;99.90;;;;;;5117078;28;20497;-55
2023/08/27 05:57:21;;;;;;;0.90;0.60;;;18.00;99.90;;;;;;5117950;28;20419;-55
2023/08/27 05:59:48;;;;;;;1.58;0.60;;;18.00;99.90;;;;;;5118152;28;20508;-55
2023/08/27 06:02:15;;;;;;;0.80;0.60;;;18.00;99.90;;;;;;5118257;28;20427;-56
2023/08/27 06:04:42;;;;;;;0.90;0.60;;;18.10;99.90;;;;;;5117248;28;20424;-56
2023/08/27 06:07:10;;;;;;;0.80;0.60;;;18.10;99.90;;;;;;5117422;28;20428;-55
2023/08/27 06:09:37;;;;;;;1.00;0.60;;;18.00;99.90;;;;;;5117464;28;20412;-56
2023/08/27 06:12:06;;;;;;;0.90;0.60;;;18.10;99.90;;;;;;5117781;28;20452;-53
2023/08/27 06:14:33;;;;;;;1.20;0.70;;;18.00;99.90;;;;;;5118278;28;20880;-54
2023/08/27 06:17:00;;;;;;;1.40;0.80;;;18.00;99.90;;;;;;5122237;27;20826;-55
2023/08/27 06:19:28;;;;;;;0.90;0.60;;;17.90;99.90;;;;;;5126785;27;20842;-56
2023/08/27 06:21:56;;;;;;;0.77;0.60;;;18.00;99.90;;;;;;5117857;28;20815;-53
2023/08/27 06:24:23;;;;;;;0.70;0.50;;;18.10;99.90;;;;;;5117177;28;20413;-51
2023/08/27 06:26:50;;;;;;;0.70;0.50;;;18.00;99.90;;;;;;5115319;28;20738;-56
2023/08/27 06:29:18;;;;;;;1.20;0.40;;;18.00;99.90;;;;;;5115373;28;20824;-55
2023/08/27 06:31:45;;;;;;;1.10;0.40;;;18.00;99.90;;;;;;5115081;28;20424;-54
2023/08/27 06:34:12;;;;;;;1.10;0.50;;;18.20;99.90;;;;;;5115883;28;20893;-52
2023/08/27 06:36:40;;;;;;;0.70;0.40;;;18.20;99.90;;;;;;5114160;28;20424;-50
2023/08/27 06:39:07;;;;;;;0.70;0.50;;;18.20;99.90;;;;;;5115226;28;20419;-51
2023/08/27 06:41:34;;;;;;;1.60;0.50;;;18.20;99.90;;;;;;5117231;28;20886;-50
2023/08/27 06:44:01;;;;;;;0.90;0.60;;;18.30;99.90;;;;;;5114871;28;20424;-50
2023/08/27 06:46:30;;;;;;;0.88;0.60;;;18.20;99.90;;;;;;5115068;28;20420;-51
2023/08/27 06:48:57;;;;;;;0.80;0.50;;;18.20;99.90;;;;;;5107124;27;20428;-53
2023/08/27 06:51:24;;;;;;;0.80;0.50;;;18.30;99.90;;;;;;5122292;27;20426;-55
2023/08/27 06:53:51;;;;;;;0.82;0.55;;;18.30;99.90;;;;;;5134833;27;20424;-52
2023/08/27 06:56:18;;;;;;;0.90;0.50;;;18.20;99.90;;;;;;5129962;27;20524;-49
2023/08/27 06:58:46;;;;;;;0.95;0.40;;;18.20;99.90;;;;;;5136178;27;20426;-51
2023/08/27 07:01:14;;;;;;;1.10;0.43;;;18.10;99.90;;;;;;5115944;28;20447;-53
2023/08/27 07:03:42;;;;;;;1.40;0.50;;;18.10;99.90;;;;;;5120005;27;20426;-52
2023/08/27 07:06:09;;;;;;;0.70;0.40;;;18.00;99.90;;;;;;5129451;27;20729;-49
2023/08/27 07:08:37;;;;;;;0.70;0.40;;;17.90;99.90;;;;;;5136795;27;20415;-53
2023/08/27 07:11:04;;;;;;;0.70;0.50;;;17.80;99.90;;;;;;5135922;27;20419;-54
2023/08/27 07:13:31;;;;;;;0.70;0.40;;;17.90;99.90;;;;;;5126945;27;20512;-52
2023/08/27 07:15:59;;;;;;;0.60;0.40;;;18.10;99.90;;;;;;5134397;27;20807;-54
2023/08/27 07:18:27;;;;;;;0.60;0.40;;;18.50;99.90;;;;;;5134387;27;20414;-53
2023/08/27 07:20:55;;;;;;;0.60;0.40;;;18.60;99.90;;;;;;5133104;27;20418;-53
2023/08/27 07:23:22;;;;;;;1.42;0.40;;;18.60;99.90;;;;;;5132857;27;20418;-51
2023/08/27 07:25:49;;;;;;;0.80;0.40;;;18.70;99.90;;;;;;5125327;27;20412;-53
2023/08/27 07:28:17;;;;;;;0.70;0.50;;;18.70;99.90;;;;;;5131176;27;20706;-52
2023/08/27 07:30:44;;;;;;;0.80;0.40;;;18.60;99.90;;;;;;5132867;27;20408;-52
2023/08/27 07:33:13;;;;;;;0.77;0.40;;;18.70;99.90;;;;;;5134112;27;20421;-53
2023/08/27 07:35:40;;;;;;;0.70;0.40;;;18.70;99.90;;;;;;5105259;27;20476;-52
2023/08/27 07:38:09;;;;;;;0.50;0.40;;;18.80;99.90;;;;;;5095012;28;20525;-55
2023/08/27 07:40:37;;;;;;;0.60;0.50;;;18.80;99.90;;;;;;5102391;28;20758;-54
2023/08/27 07:43:05;;;;;;;1.20;0.45;;;18.80;99.90;;;;;;5106812;28;20454;-53
2023/08/27 07:45:32;;;;;;;1.40;0.40;;;18.70;99.90;;;;;;5093898;28;20513;-53
2023/08/27 07:47:59;;;;;;;0.70;0.47;;;18.90;99.90;;;;;;5105004;28;20433;-52
2023/08/27 07:50:27;;;;;;;0.60;0.50;;;19.10;99.90;;;;;;5097145;28;20924;-54
2023/08/27 07:52:54;;;;;;;1.45;0.40;;;19.20;99.90;;;;;;5092944;28;20429;-50
2023/08/27 07:55:22;;;;;;;0.80;0.50;;;19.20;99.90;;;;;;5099930;28;20835;-49
2023/08/27 07:57:49;;;;;;;0.80;0.40;;;19.10;99.90;;;;;;5114041;28;20412;-51
2023/08/27 08:00:18;;;;;;;0.65;0.40;;;19.10;99.90;;;;;;5114659;28;20473;-53
2023/08/27 08:02:45;;;;;;;0.85;0.50;;;19.00;99.90;;;;;;5113051;28;20439;-51
2023/08/27 08:05:12;;;;;;;0.73;0.40;;;18.90;99.90;;;;;;5111295;28;20432;-47
2023/08/27 08:07:40;;;;;;;1.00;0.43;;;19.00;99.90;;;;;;5094806;28;20421;-53
2023/08/27 08:10:07;;;;;;;0.50;0.40;;;18.80;99.90;;;;;;5092340;28;20582;-50
2023/08/27 08:12:36;;;;;;;0.60;0.40;;;18.70;99.90;;;;;;5091383;28;20417;-55
2023/08/27 08:15:03;;;;;;;0.75;0.40;;;18.70;99.90;;;;;;5091696;28;20432;-52
2023/08/27 08:17:30;;;;;;;0.60;0.40;;;18.90;99.90;;;;;;5092471;28;20437;-54
2023/08/27 08:19:58;;;;;;;0.60;0.40;;;19.00;99.90;;;;;;5093068;28;20699;-53
2023/08/27 08:22:25;;;;;;;0.68;0.40;;;19.00;99.90;;;;;;5125034;28;20484;-54
2023/08/27 08:24:52;;;;;;;0.70;0.40;;;19.00;99.90;;;;;;5132267;28;20423;-53
2023/08/27 08:27:19;;;;;;;0.40;0.30;;;19.20;99.90;;;;;;5132933;28;20409;-51
2023/08/27 08:29:47;;;;;;;2.23;1.23;;;19.20;99.90;;;;;;5134078;28;20422;-54
2023/08/27 08:32:14;;;;;;;1.20;0.40;;;19.40;99.90;;;;;;5133883;27;20430;-54
2023/08/27 08:34:41;;;;;;;0.50;0.30;;;19.40;99.90;;;;;;5134409;28;20841;-54
2023/08/27 08:37:09;;;;;;;0.60;0.30;;;19.50;99.90;;;;;;5135620;28;20942;-48
2023/08/27 08:39:36;;;;;;;0.45;0.30;;;19.60;99.90;;;;;;5135372;28;20453;-49
2023/08/27 08:42:13;;;;;;;0.50;0.30;;;19.50;99.90;;;;;;5135427;28;20780;-49
2023/08/27 08:44:50;;;;;;;1.23;0.40;;;19.50;99.90;;;;;;5134872;28;20487;-50
2023/08/27 08:47:20;;;;;;;0.57;0.35;;;19.40;99.90;;;;;;5133423;28;20691;-52
2023/08/27 08:49:52;;;;;;;0.57;0.30;;;19.40;99.90;;;;;;5134454;27;20473;-54
2023/08/27 08:52:22;;;;;;;0.60;0.30;;;19.20;99.90;;;;;;5135845;27;20737;-54
2023/08/27 08:54:54;;;;;;;0.50;0.30;;;19.30;99.90;;;;;;5136101;27;20414;-56
2023/08/27 08:57:24;;;;;;;0.70;0.30;;;19.60;99.90;;;;;;5136860;27;20426;-55
2023/08/27 08:59:54;;;;;;;1.00;0.40;;;19.90;99.90;;;;;;5136099;27;20718;-55
2023/08/27 09:02:21;;;;;;;1.40;0.40;;;19.90;99.90;;;;;;5136044;27;20410;-56
2023/08/27 09:04:48;;;;;;;0.50;0.30;;;20.00;99.90;;;;;;5136939;27;20827;-55
2023/08/27 09:07:17;;;;;;;0.50;0.50;;;20.00;99.90;;;;;;5137197;27;20406;-55
2023/08/27 09:09:45;;;;;;;0.80;0.30;;;19.80;99.90;;;;;;5138286;27;20414;-56
2023/08/27 09:12:15;;;;;;;0.60;0.30;;;19.50;99.90;;;;;;5096935;28;20437;-56
2023/08/27 09:14:42;;;;;;;0.50;0.30;;;19.40;99.90;;;;;;5088358;28;20768;-55
2023/08/27 09:17:13;;;;;;;1.00;0.30;;;19.40;99.90;;;;;;5113963;28;20739;-56
2023/08/27 09:19:40;;;;;;;0.65;0.30;;;19.30;99.90;;;;;;5113915;28;20440;-57
2023/08/27 09:22:07;;;;;;;0.63;0.30;;;19.40;99.90;;;;;;5115853;28;20424;-56
2023/08/27 09:24:34;;;;;;;0.60;0.30;;;19.40;99.90;;;;;;5114950;28;20425;-56
2023/08/27 09:27:01;;;;;;;0.60;0.30;;;19.50;99.90;;;;;;5097592;28;20418;-55
2023/08/27 09:29:29;;;;;;;0.60;0.30;;;19.50;99.90;;;;;;5096801;28;20838;-57
2023/08/27 09:31:57;;;;;;;0.65;0.30;;;19.80;99.90;;;;;;5118511;27;20422;-53
2023/08/27 09:34:25;;;;;;;0.57;0.40;;;19.80;99.90;;;;;;5138325;27;20442;-51
2023/08/27 09:36:52;;;;;;;0.60;0.30;;;20.10;99.90;;;;;;5129386;27;20430;-54
2023/08/27 09:39:20;;;;;;;0.60;0.30;;;20.60;99.90;;;;;;5137249;27;20419;-53
2023/08/27 09:41:48;;;;;;;0.50;0.30;;;20.80;57.20;;;;;;5137768;27;20419;-51
2023/08/27 09:44:15;;;;;;;0.60;0.30;;;20.90;85.50;;;;;;5137432;27;20745;-56
2023/08/27 09:46:43;;;;;;;0.60;0.30;;;20.90;68.10;;;;;;5136973;27;20429;-54
2023/08/27 09:49:10;;;;;;;0.90;0.40;;;21.10;91.80;;;;;;5136929;27;20479;-56
2023/08/27 09:51:40;;;;;;;0.50;0.30;;;21.10;44.80;;;;;;5135620;27;20456;-55
2023/08/27 09:54:17;;;;;;;1.50;0.30;;;21.00;49.40;;;;;;5130565;27;20419;-54
2023/08/27 09:56:46;;;;;;;0.60;0.40;;;21.00;59.60;;;;;;5125266;27;20857;-56
2023/08/27 09:59:16;;;;;;;1.00;0.80;;;21.10;41.20;;;;;;5131355;27;20450;-55
2023/08/27 10:01:47;;;;;;;0.60;0.40;;;21.10;31.10;;;;;;5134198;27;20472;-57
2023/08/27 10:04:14;;;;;;;0.93;0.30;;;20.90;32.60;;;;;;5116979;28;20428;-56
2023/08/27 10:06:43;;;;;;;0.50;0.30;;;20.90;43.80;;;;;;5116856;27;20420;-57
2023/08/27 10:09:10;;;;;;;0.50;0.30;;;21.00;15.30;;;;;;5116876;27;20808;-56
2023/08/27 10:11:38;;;;;;;0.60;0.30;;;21.00;23.40;;;;;;5120817;27;20426;-56
2023/08/27 10:14:05;;;;;;;0.57;0.30;;;21.00;22.50;;;;;;5131108;27;20414;-54
2023/08/27 10:16:34;;;;;;;0.60;0.30;;;20.90;27.80;;;;;;5117737;27;20424;-56
2023/08/27 10:19:02;;;;;;;1.00;0.30;;;21.30;24.60;;;;;;5134949;27;20426;-57
2023/08/27 10:21:30;;;;;;;0.88;0.30;;;21.50;18.70;;;;;;5119767;27;20451;-57
2023/08/27 10:23:58;;;;;;;0.50;0.30;;;21.50;1.00;;;;;;5115724;28;20497;-55
2023/08/27 10:26:26;;;;;;;1.50;0.40;;;21.50;1.00;;;;;;5121903;27;21002;-57
2023/08/27 10:28:54;;;;;;;0.80;0.30;;;21.80;1.00;;;;;;5115767;28;20420;-57
2023/08/27 10:31:21;;;;;;;0.60;0.40;;;22.20;1.00;;;;;;5122176;27;20594;-57
2023/08/27 10:33:48;;;;;;;1.50;0.30;;;22.40;1.00;;;;;;5115884;28;20412;-53
2023/08/27 10:36:19;;;;;;;0.60;0.30;;;22.20;1.00;;;;;;5120306;27;20426;-57
2023/08/27 10:38:49;;;;;;;0.50;0.30;;;22.00;1.00;;;;;;5137737;27;20418;-51
2023/08/27 10:41:19;;;;;;;0.65;0.30;;;22.00;1.00;;;;;;5128068;27;20426;-57
2023/08/27 10:43:46;;;;;;;0.60;0.30;;;22.30;1.00;;;;;;5135085;27;20717;-57
2023/08/27 10:46:16;;;;;;;1.03;0.30;;;22.30;1.00;;;;;;5128955;27;20450;-55
2023/08/27 10:48:49;;;;;;;0.60;0.40;;;22.30;1.00;;;;;;5137576;27;20701;-57
2023/08/27 10:51:17;;;;;;;0.75;0.40;;;22.30;1.00;;;;;;5131036;27;20453;-57
2023/08/27 10:53:56;;;;;;;0.60;0.30;;;22.20;1.00;;;;;;5130366;27;20910;-55
2023/08/27 10:56:36;;;;;;;0.90;0.40;;;21.90;1.00;;;;;;5120934;27;20829;-57
2023/08/27 10:59:05;;;;;;;0.90;0.40;;;22.00;1.00;;;;;;5129886;27;20458;-54
2023/08/27 11:01:37;;;;;;;0.60;0.40;;;21.80;1.00;;;;;;5115526;28;20432;-56
2023/08/27 11:04:05;;;;;;;0.50;0.30;;;22.00;1.00;;;;;;5115881;27;20500;-56
2023/08/27 11:06:45;;;;;;;0.50;0.30;;;22.30;1.00;;;;;;5112079;28;20455;-56
2023/08/27 11:09:17;;;;;;;0.50;0.30;;;22.30;1.00;;;;;;5114531;27;20843;-57
2023/08/27 11:11:50;;;;;;;0.60;0.30;;;22.20;1.00;;;;;;5113198;28;20427;-55
2023/08/27 11:14:19;;;;;;;0.70;0.40;;;22.00;1.00;;;;;;5115005;27;20561;-54
2023/08/27 11:16:48;;;;;;;0.70;0.40;;;21.90;1.00;;;;;;5115801;27;20454;-56
2023/08/27 11:19:24;;;;;;;0.50;0.30;;;22.00;1.00;;;;;;5118724;27;20455;-56
2023/08/27 11:21:51;;;;;;;0.50;0.30;;;22.10;1.00;;;;;;5116032;27;20426;-56
2023/08/27 11:24:21;;;;;;;0.50;0.30;;;22.30;1.00;;;;;;5122271;27;20422;-56
2023/08/27 11:26:49;;;;;;;0.70;0.30;;;22.40;1.00;;;;;;5132429;27;20525;-57
2023/08/27 11:29:17;;;;;;;0.50;0.30;;;22.20;1.00;;;;;;5117714;27;20712;-56
2023/08/27 11:31:46;;;;;;;0.50;0.30;;;22.10;1.00;;;;;;5112074;27;20439;-57
2023/08/27 11:34:14;;;;;;;0.70;0.40;;;22.20;1.00;;;;;;5128466;27;20442;-54
2023/08/27 11:36:42;;;;;;;0.70;0.40;;;22.40;1.00;;;;;;5132046;27;20457;-56
2023/08/27 11:39:11;;;;;;;0.60;0.40;;;22.10;1.00;;;;;;5114454;28;20416;-54
2023/08/27 11:41:39;;;;;;;1.10;0.50;;;21.80;1.00;;;;;;5115186;28;20423;-57
2023/08/27 11:44:10;;;;;;;0.70;0.40;;;21.80;1.00;;;;;;5115443;27;20432;-53
2023/08/27 11:46:38;;;;;;;0.80;0.50;;;22.00;1.00;;;;;;5125295;27;20442;-52
2023/08/27 11:49:06;;;;;;;0.60;0.40;;;22.10;1.00;;;;;;5125158;27;20430;-56
2023/08/27 11:51:34;;;;;;;0.70;0.30;;;22.20;1.00;;;;;;5130950;27;20423;-55
2023/08/27 11:54:05;;;;;;;0.57;0.30;;;22.40;1.00;;;;;;5129595;27;20876;-54
2023/08/27 11:56:35;;;;;;;0.70;0.30;;;22.40;1.00;;;;;;5133215;27;20769;-50
2023/08/27 11:59:04;;;;;;;0.60;0.30;;;22.40;1.00;;;;;;5134671;27;20425;-54
2023/08/27 12:01:33;;;;;;;1.20;0.40;;;22.20;1.00;;;;;;5128128;27;20522;-55
2023/08/27 12:04:00;;;;;;;0.95;0.50;;;22.10;1.00;;;;;;5135664;27;20521;-54
2023/08/27 12:06:28;;;;;;;0.57;0.30;;;22.10;1.00;;;;;;5126204;27;20428;-54
2023/08/27 12:08:56;;;;;;;1.10;0.40;;;22.40;1.00;;;;;;5115076;28;20428;-56
2023/08/27 12:11:26;;;;;;;0.60;0.40;;;22.60;99.90;;;;;;5114886;27;20445;-56
2023/08/27 12:13:57;;;;;;;0.50;0.30;;;22.80;1.00;;;;;;5112743;28;20424;-55
2023/08/27 12:16:32;;;;;;;1.40;0.40;;;22.60;99.90;;;;;;5124016;27;20935;-56
2023/08/27 12:19:05;;;;;;;0.50;0.38;;;22.50;1.00;;;;;;5124733;27;20782;-55
2023/08/27 12:21:36;;;;;;;0.70;0.40;;;22.50;1.00;;;;;;5113710;28;21037;-56
2023/08/27 12:24:05;;;;;;;0.63;0.40;;;22.50;99.90;;;;;;5117658;28;20462;-55
2023/08/27 12:26:32;;;;;;;0.52;0.38;;;22.30;99.90;;;;;;5120781;28;20442;-55
2023/08/27 12:28:59;;;;;;;1.20;0.40;;;21.90;1.00;;;;;;5113703;28;20416;-55
2023/08/27 12:31:27;;;;;;;0.77;0.40;;;22.00;1.00;;;;;;5114400;28;20431;-57
2023/08/27 12:34:00;;;;;;;0.50;0.30;;;22.00;1.00;;;;;;5114871;28;20707;-57
2023/08/27 12:36:27;;;;;;;0.60;0.40;;;21.90;1.00;;;;;;5118296;28;20538;-57
2023/08/27 12:38:54;;;;;;;0.70;0.40;;;22.00;1.00;;;;;;5130483;28;20432;-57
2023/08/27 12:41:22;;;;;;;0.60;0.30;;;22.00;1.00;;;;;;5113386;28;20412;-55
2023/08/27 12:43:51;;;;;;;0.65;0.40;;;22.20;1.00;;;;;;5119144;28;20484;-57
2023/08/27 12:46:19;;;;;;;0.90;0.30;;;22.30;1.00;;;;;;5113542;28;20490;-57
2023/08/27 12:48:47;;;;;;;0.70;0.40;;;22.30;1.00;;;;;;5116609;28;20439;-56
2023/08/27 12:51:16;;;;;;;0.60;0.40;;;22.30;1.00;;;;;;5114546;28;20800;-57